sensor_id;sensor_type;location;lat;lon;timestamp;pressure;altitude;pressure_sealevel;temperature;humidity
69796;BME280;57073;45.650;9.612;2024-02-14T00:04:31;99832.44;;;6.76;53.94
69796;BME280;57073;45.650;9.612;2024-02-14T00:09:32;99832.03;;;6.79;53.49
69796;BME280;57073;45.650;9.612;2024-02-14T00:14:32;99836.16;;;6.82;53.76
69796;BME280;57073;45.650;9.612;2024-02-14T00:19:32;99831.44;;;6.84;53.34
69796;BME280;57073;45.650;9.612;2024-02-14T00:24:34;99827.50;;;6.79;54.00
69796;BME280;57073;45.650;9.612;2024-02-14T00:29:36;99833.53;;;6.53;52.72
69796;BME280;57073;45.650;9.612;2024-02-14T00:34:36;99826.97;;;6.56;52.47
69796;BME280;57073;45.650;9.612;2024-02-14T00:39:36;99833.63;;;6.73;52.64
69796;BME280;57073;45.650;9.612;2024-02-14T00:44:37;99831.09;;;6.58;52.06
69796;BME280;57073;45.650;9.612;2024-02-14T00:49:37;99833.00;;;6.65;52.38
69796;BME280;57073;45.650;9.612;2024-02-14T00:54:39;99843.09;;;6.69;52.74
69796;BME280;57073;45.650;9.612;2024-02-14T00:59:39;99845.03;;;6.82;52.92
69796;BME280;57073;45.650;9.612;2024-02-14T01:04:40;99852.06;;;6.83;52.45
69796;BME280;57073;45.650;9.612;2024-02-14T01:09:40;99852.09;;;6.90;52.69
69796;BME280;57073;45.650;9.612;2024-02-14T01:14:40;99847.34;;;6.92;52.04
69796;BME280;57073;45.650;9.612;2024-02-14T01:19:42;99849.81;;;6.93;52.08
69796;BME280;57073;45.650;9.612;2024-02-14T01:24:42;99846.53;;;6.98;51.56
69796;BME280;57073;45.650;9.612;2024-02-14T01:29:43;99849.66;;;7.02;51.79
69796;BME280;57073;45.650;9.612;2024-02-14T01:34:44;99850.66;;;6.94;53.00
69796;BME280;57073;45.650;9.612;2024-02-14T01:39:44;99858.91;;;6.92;52.85
69796;BME280;57073;45.650;9.612;2024-02-14T01:44:44;99866.13;;;6.98;52.26
69796;BME280;57073;45.650;9.612;2024-02-14T01:49:45;99864.63;;;6.83;51.55
69796;BME280;57073;45.650;9.612;2024-02-14T01:54:45;99865.22;;;6.78;51.43
69796;BME280;57073;45.650;9.612;2024-02-14T01:59:46;99861.72;;;6.77;50.99
69796;BME280;57073;45.650;9.612;2024-02-14T02:04:48;99859.28;;;6.83;51.08
69796;BME280;57073;45.650;9.612;2024-02-14T02:09:50;99865.50;;;6.90;50.50
69796;BME280;57073;45.650;9.612;2024-02-14T02:14:51;99862.16;;;6.88;51.33
69796;BME280;57073;45.650;9.612;2024-02-14T02:19:54;99859.28;;;6.83;50.63
69796;BME280;57073;45.650;9.612;2024-02-14T02:24:55;99865.84;;;6.80;51.95
69796;BME280;57073;45.650;9.612;2024-02-14T02:29:56;99862.50;;;6.71;51.86
69796;BME280;57073;45.650;9.612;2024-02-14T02:34:57;99865.16;;;6.71;51.84
69796;BME280;57073;45.650;9.612;2024-02-14T02:39:58;99863.53;;;6.77;50.83
69796;BME280;57073;45.650;9.612;2024-02-14T02:44:58;99857.69;;;6.60;51.15
69796;BME280;57073;45.650;9.612;2024-02-14T02:49:58;99861.63;;;6.64;51.06
69796;BME280;57073;45.650;9.612;2024-02-14T02:55:01;99858.06;;;6.57;52.00
69796;BME280;57073;45.650;9.612;2024-02-14T03:00:03;99864.09;;;6.66;51.27
69796;BME280;57073;45.650;9.612;2024-02-14T03:05:07;99862.03;;;6.61;51.43
69796;BME280;57073;45.650;9.612;2024-02-14T03:10:11;99865.28;;;6.56;50.92
69796;BME280;57073;45.650;9.612;2024-02-14T03:15:14;99872.13;;;6.59;51.16
69796;BME280;57073;45.650;9.612;2024-02-14T03:20:15;99872.75;;;6.61;51.28
69796;BME280;57073;45.650;9.612;2024-02-14T03:25:17;99872.25;;;6.51;51.36
69796;BME280;57073;45.650;9.612;2024-02-14T03:30:19;99874.31;;;6.49;52.14
69796;BME280;57073;45.650;9.612;2024-02-14T03:35:20;99878.63;;;6.50;52.63
69796;BME280;57073;45.650;9.612;2024-02-14T03:40:22;99874.34;;;6.27;53.50
69796;BME280;57073;45.650;9.612;2024-02-14T03:45:22;99882.09;;;6.15;54.32
69796;BME280;57073;45.650;9.612;2024-02-14T03:50:23;99893.66;;;6.16;54.22
69796;BME280;57073;45.650;9.612;2024-02-14T03:55:23;99901.69;;;6.16;54.41
69796;BME280;57073;45.650;9.612;2024-02-14T04:00:26;99899.38;;;6.13;53.66
69796;BME280;57073;45.650;9.612;2024-02-14T04:05:26;99885.16;;;6.12;52.82
69796;BME280;57073;45.650;9.612;2024-02-14T04:10:28;99879.31;;;6.02;52.54
69796;BME280;57073;45.650;9.612;2024-02-14T04:15:28;99892.13;;;6.07;52.50
69796;BME280;57073;45.650;9.612;2024-02-14T04:20:28;99894.84;;;5.92;54.08
69796;BME280;57073;45.650;9.612;2024-02-14T04:25:29;99915.25;;;5.93;53.77
69796;BME280;57073;45.650;9.612;2024-02-14T04:30:29;99915.31;;;5.78;53.73
69796;BME280;57073;45.650;9.612;2024-02-14T04:35:30;99919.78;;;5.71;54.40
69796;BME280;57073;45.650;9.612;2024-02-14T04:40:30;99928.41;;;5.51;54.10
69796;BME280;57073;45.650;9.612;2024-02-14T04:45:30;99931.19;;;5.43;55.26
69796;BME280;57073;45.650;9.612;2024-02-14T04:50:31;99931.88;;;5.52;53.95
69796;BME280;57073;45.650;9.612;2024-02-14T04:55:31;99933.03;;;5.42;54.07
69796;BME280;57073;45.650;9.612;2024-02-14T05:00:32;99940.47;;;5.17;54.93
69796;BME280;57073;45.650;9.612;2024-02-14T05:05:32;99939.47;;;5.18;55.54
69796;BME280;57073;45.650;9.612;2024-02-14T05:10:33;99947.69;;;5.17;55.44
69796;BME280;57073;45.650;9.612;2024-02-14T05:15:34;99938.28;;;5.06;56.08
69796;BME280;57073;45.650;9.612;2024-02-14T05:20:35;99938.28;;;5.06;56.03
69796;BME280;57073;45.650;9.612;2024-02-14T05:25:35;99923.72;;;5.23;54.67
69796;BME280;57073;45.650;9.612;2024-02-14T05:30:36;99928.75;;;5.33;53.17
69796;BME280;57073;45.650;9.612;2024-02-14T05:35:36;99938.38;;;5.42;53.30
69796;BME280;57073;45.650;9.612;2024-02-14T05:40:36;99942.03;;;5.41;53.26
69796;BME280;57073;45.650;9.612;2024-02-14T05:45:38;99948.59;;;5.39;53.21
69796;BME280;57073;45.650;9.612;2024-02-14T05:50:39;99937.38;;;5.29;53.65
69796;BME280;57073;45.650;9.612;2024-02-14T05:55:39;99946.75;;;5.24;53.67
69796;BME280;57073;45.650;9.612;2024-02-14T06:00:40;99949.34;;;5.18;54.80
69796;BME280;57073;45.650;9.612;2024-02-14T06:05:40;99945.84;;;5.17;55.27
69796;BME280;57073;45.650;9.612;2024-02-14T06:10:40;99952.19;;;5.31;54.31
69796;BME280;57073;45.650;9.612;2024-02-14T06:15:41;99965.66;;;5.23;54.60
69796;BME280;57073;45.650;9.612;2024-02-14T06:20:41;99967.94;;;5.41;54.07
69796;BME280;57073;45.650;9.612;2024-02-14T06:25:42;99970.38;;;5.36;54.14
69796;BME280;57073;45.650;9.612;2024-02-14T06:30:42;99978.84;;;5.24;54.88
69796;BME280;57073;45.650;9.612;2024-02-14T06:35:44;99985.41;;;5.22;54.50
69796;BME280;57073;45.650;9.612;2024-02-14T06:40:44;99996.94;;;5.52;53.24
69796;BME280;57073;45.650;9.612;2024-02-14T06:45:44;99993.41;;;5.37;53.15
69796;BME280;57073;45.650;9.612;2024-02-14T06:50:45;100004.94;;;5.22;54.31
69796;BME280;57073;45.650;9.612;2024-02-14T06:55:45;100011.31;;;5.21;53.94
69796;BME280;57073;45.650;9.612;2024-02-14T07:00:45;100024.22;;;5.33;54.34
69796;BME280;57073;45.650;9.612;2024-02-14T07:05:46;100029.22;;;5.51;52.68
69796;BME280;57073;45.650;9.612;2024-02-14T07:10:46;100035.84;;;5.55;53.17
69796;BME280;57073;45.650;9.612;2024-02-14T07:15:46;100036.03;;;5.83;52.69
69796;BME280;57073;45.650;9.612;2024-02-14T07:20:47;100040.88;;;5.94;52.80
69796;BME280;57073;45.650;9.612;2024-02-14T07:25:47;100053.22;;;6.10;52.70
69796;BME280;57073;45.650;9.612;2024-02-14T07:30:47;100065.81;;;6.53;51.91
69796;BME280;57073;45.650;9.612;2024-02-14T07:35:48;100060.13;;;7.12;50.45
69796;BME280;57073;45.650;9.612;2024-02-14T07:40:48;100059.78;;;7.50;48.92
69796;BME280;57073;45.650;9.612;2024-02-14T07:45:48;100060.25;;;8.09;47.92
69796;BME280;57073;45.650;9.612;2024-02-14T07:50:49;100068.19;;;8.44;46.97
69796;BME280;57073;45.650;9.612;2024-02-14T07:55:49;100078.84;;;8.92;45.92
69796;BME280;57073;45.650;9.612;2024-02-14T08:00:49;100072.59;;;9.25;44.56
69796;BME280;57073;45.650;9.612;2024-02-14T08:05:50;100072.97;;;9.55;45.22
69796;BME280;57073;45.650;9.612;2024-02-14T08:10:51;100063.94;;;9.95;44.32
69796;BME280;57073;45.650;9.612;2024-02-14T08:15:51;100073.94;;;10.33;43.42
69796;BME280;57073;45.650;9.612;2024-02-14T08:20:53;100069.59;;;10.64;42.90
69796;BME280;57073;45.650;9.612;2024-02-14T08:25:53;100074.34;;;10.93;41.16
69796;BME280;57073;45.650;9.612;2024-02-14T08:30:54;100067.06;;;11.19;43.29
69796;BME280;57073;45.650;9.612;2024-02-14T08:35:54;100085.25;;;11.30;41.76
69796;BME280;57073;45.650;9.612;2024-02-14T08:40:57;100083.97;;;11.33;41.36
69796;BME280;57073;45.650;9.612;2024-02-14T08:45:58;100087.91;;;11.55;41.68
69796;BME280;57073;45.650;9.612;2024-02-14T08:50:58;100077.66;;;11.64;41.21
69796;BME280;57073;45.650;9.612;2024-02-14T08:55:58;100070.91;;;11.73;40.66
69796;BME280;57073;45.650;9.612;2024-02-14T09:00:59;100082.63;;;11.86;40.00
69796;BME280;57073;45.650;9.612;2024-02-14T09:05:59;100087.03;;;11.99;40.52
69796;BME280;57073;45.650;9.612;2024-02-14T09:11:00;100081.97;;;12.21;40.82
69796;BME280;57073;45.650;9.612;2024-02-14T09:16:01;100082.44;;;12.18;40.72
69796;BME280;57073;45.650;9.612;2024-02-14T09:21:01;100080.84;;;12.28;40.95
69796;BME280;57073;45.650;9.612;2024-02-14T09:26:05;100073.59;;;12.10;40.63
69796;BME280;57073;45.650;9.612;2024-02-14T09:31:05;100085.16;;;11.81;39.39
69796;BME280;57073;45.650;9.612;2024-02-14T09:36:06;100087.59;;;11.89;41.32
69796;BME280;57073;45.650;9.612;2024-02-14T09:46:14;100085.13;;;11.44;40.26
69796;BME280;57073;45.650;9.612;2024-02-14T09:51:15;100080.00;;;11.35;42.00
69796;BME280;57073;45.650;9.612;2024-02-14T09:56:16;100092.31;;;11.50;42.68
69796;BME280;57073;45.650;9.612;2024-02-14T10:01:19;100093.38;;;11.30;40.91
69796;BME280;57073;45.650;9.612;2024-02-14T10:06:21;100100.78;;;11.10;41.02
69796;BME280;57073;45.650;9.612;2024-02-14T10:11:22;100106.63;;;11.07;40.09
69796;BME280;57073;45.650;9.612;2024-02-14T10:16:23;100100.84;;;11.03;39.79
69796;BME280;57073;45.650;9.612;2024-02-14T10:21:24;100105.94;;;11.18;40.28
69796;BME280;57073;45.650;9.612;2024-02-14T10:26:25;100107.13;;;11.22;40.70
69796;BME280;57073;45.650;9.612;2024-02-14T10:31:26;100104.09;;;11.12;41.09
69796;BME280;57073;45.650;9.612;2024-02-14T10:36:27;100105.16;;;11.11;41.96
69796;BME280;57073;45.650;9.612;2024-02-14T10:41:30;100093.47;;;11.17;41.11
69796;BME280;57073;45.650;9.612;2024-02-14T10:46:37;100089.78;;;11.11;41.58
69796;BME280;57073;45.650;9.612;2024-02-14T10:51:38;100089.28;;;10.96;42.13
69796;BME280;57073;45.650;9.612;2024-02-14T10:56:41;100073.38;;;11.13;41.89
69796;BME280;57073;45.650;9.612;2024-02-14T11:01:43;100078.44;;;11.03;41.96
69796;BME280;57073;45.650;9.612;2024-02-14T11:06:45;100077.22;;;10.98;43.30
69796;BME280;57073;45.650;9.612;2024-02-14T11:11:46;100088.97;;;11.11;43.31
69796;BME280;57073;45.650;9.612;2024-02-14T11:16:47;100081.25;;;10.89;43.03
69796;BME280;57073;45.650;9.612;2024-02-14T11:21:47;100069.66;;;11.32;43.32
69796;BME280;57073;45.650;9.612;2024-02-14T11:26:50;100077.19;;;11.49;43.28
69796;BME280;57073;45.650;9.612;2024-02-14T11:31:59;100070.13;;;11.48;43.17
69796;BME280;57073;45.650;9.612;2024-02-14T11:37:02;100070.00;;;11.61;43.60
69796;BME280;57073;45.650;9.612;2024-02-14T11:42:05;100076.06;;;11.56;44.42
69796;BME280;57073;45.650;9.612;2024-02-14T11:47:05;100063.22;;;11.52;44.23
69796;BME280;57073;45.650;9.612;2024-02-14T11:52:17;100068.59;;;11.59;44.00
69796;BME280;57073;45.650;9.612;2024-02-14T11:57:19;100055.38;;;11.69;44.03
69796;BME280;57073;45.650;9.612;2024-02-14T12:02:20;100055.91;;;11.59;44.09
69796;BME280;57073;45.650;9.612;2024-02-14T12:07:22;100051.25;;;11.66;43.47
69796;BME280;57073;45.650;9.612;2024-02-14T12:12:22;100044.47;;;11.75;44.28
69796;BME280;57073;45.650;9.612;2024-02-14T12:17:23;100044.09;;;11.72;44.31
69796;BME280;57073;45.650;9.612;2024-02-14T12:22:23;100032.03;;;11.74;44.17
69796;BME280;57073;45.650;9.612;2024-02-14T12:27:24;100026.34;;;11.64;43.99
69796;BME280;57073;45.650;9.612;2024-02-14T12:32:24;100026.44;;;11.57;44.47
69796;BME280;57073;45.650;9.612;2024-02-14T12:37:25;100027.59;;;11.80;44.38
69796;BME280;57073;45.650;9.612;2024-02-14T12:42:25;100021.44;;;11.91;44.48
69796;BME280;57073;45.650;9.612;2024-02-14T12:47:28;100024.94;;;11.92;44.48
69796;BME280;57073;45.650;9.612;2024-02-14T12:52:32;100009.25;;;12.01;44.21
69796;BME280;57073;45.650;9.612;2024-02-14T12:57:32;99995.06;;;12.05;43.93
69796;BME280;57073;45.650;9.612;2024-02-14T13:02:32;99996.22;;;11.98;41.90
69796;BME280;57073;45.650;9.612;2024-02-14T13:07:34;99991.28;;;12.06;42.42
69796;BME280;57073;45.650;9.612;2024-02-14T13:12:34;99988.19;;;12.21;42.50
69796;BME280;57073;45.650;9.612;2024-02-14T13:17:35;99980.31;;;12.31;43.18
69796;BME280;57073;45.650;9.612;2024-02-14T13:22:36;99965.59;;;12.16;42.64
69796;BME280;57073;45.650;9.612;2024-02-14T13:27:37;99976.13;;;12.36;43.29
69796;BME280;57073;45.650;9.612;2024-02-14T13:32:38;99985.63;;;12.38;42.65
69796;BME280;57073;45.650;9.612;2024-02-14T13:37:39;99973.03;;;12.32;41.49
69796;BME280;57073;45.650;9.612;2024-02-14T13:42:39;99967.63;;;12.32;42.39
69796;BME280;57073;45.650;9.612;2024-02-14T13:47:40;99966.06;;;12.24;41.43
69796;BME280;57073;45.650;9.612;2024-02-14T13:52:42;99969.28;;;12.33;41.80
69796;BME280;57073;45.650;9.612;2024-02-14T13:57:42;99967.63;;;12.32;41.58
69796;BME280;57073;45.650;9.612;2024-02-14T14:02:43;99949.75;;;12.31;41.76
69796;BME280;57073;45.650;9.612;2024-02-14T14:07:43;99938.34;;;12.29;41.88
69796;BME280;57073;45.650;9.612;2024-02-14T14:12:43;99937.50;;;12.17;42.26
69796;BME280;57073;45.650;9.612;2024-02-14T14:17:44;99942.09;;;12.28;42.15
69796;BME280;57073;45.650;9.612;2024-02-14T14:22:44;99945.16;;;12.31;41.99
69796;BME280;57073;45.650;9.612;2024-02-14T14:27:44;99948.00;;;12.37;41.52
69796;BME280;57073;45.650;9.612;2024-02-14T14:32:45;99942.94;;;12.28;41.51
69796;BME280;57073;45.650;9.612;2024-02-14T14:37:45;99933.53;;;12.31;41.30
69796;BME280;57073;45.650;9.612;2024-02-14T14:42:46;99932.56;;;12.25;41.21
69796;BME280;57073;45.650;9.612;2024-02-14T14:47:46;99938.47;;;12.34;41.73
69796;BME280;57073;45.650;9.612;2024-02-14T14:52:47;99942.50;;;12.43;41.63
69796;BME280;57073;45.650;9.612;2024-02-14T14:57:47;99946.59;;;12.34;42.03
69796;BME280;57073;45.650;9.612;2024-02-14T15:02:47;99956.09;;;12.25;41.49
69796;BME280;57073;45.650;9.612;2024-02-14T15:07:48;99951.66;;;12.42;41.83
69796;BME280;57073;45.650;9.612;2024-02-14T15:12:48;99955.44;;;12.41;41.99
69796;BME280;57073;45.650;9.612;2024-02-14T15:17:49;99951.19;;;12.45;41.86
69796;BME280;57073;45.650;9.612;2024-02-14T15:22:49;99948.72;;;12.44;41.82
69796;BME280;57073;45.650;9.612;2024-02-14T15:27:49;99953.31;;;12.43;41.72
69796;BME280;57073;45.650;9.612;2024-02-14T15:32:56;99960.69;;;12.36;42.05
69796;BME280;57073;45.650;9.612;2024-02-14T15:38:15;99955.38;;;12.18;41.66
69796;BME280;57073;45.650;9.612;2024-02-14T15:43:16;99955.00;;;12.14;41.79
69796;BME280;57073;45.650;9.612;2024-02-14T15:48:16;99955.09;;;12.07;42.13
69796;BME280;57073;45.650;9.612;2024-02-14T15:53:17;99955.56;;;12.04;42.11
69796;BME280;57073;45.650;9.612;2024-02-14T15:58:17;99949.56;;;12.02;41.87
69796;BME280;57073;45.650;9.612;2024-02-14T16:03:18;99960.09;;;11.92;41.90
69796;BME280;57073;45.650;9.612;2024-02-14T16:08:18;99959.19;;;11.98;42.07
69796;BME280;57073;45.650;9.612;2024-02-14T16:13:19;99957.72;;;11.84;42.75
69796;BME280;57073;45.650;9.612;2024-02-14T16:18:19;99965.47;;;11.80;43.34
69796;BME280;57073;45.650;9.612;2024-02-14T16:23:20;99977.31;;;11.79;43.70
69796;BME280;57073;45.650;9.612;2024-02-14T16:28:20;99986.34;;;11.73;44.18
69796;BME280;57073;45.650;9.612;2024-02-14T16:33:23;99988.88;;;11.68;44.28
69796;BME280;57073;45.650;9.612;2024-02-14T16:38:23;99988.16;;;11.61;44.72
69796;BME280;57073;45.650;9.612;2024-02-14T16:43:23;99987.91;;;11.44;45.65
69796;BME280;57073;45.650;9.612;2024-02-14T16:48:24;99999.59;;;11.37;46.19
69796;BME280;57073;45.650;9.612;2024-02-14T16:53:25;99994.94;;;11.26;46.48
69796;BME280;57073;45.650;9.612;2024-02-14T16:58:25;99998.50;;;11.27;46.73
69796;BME280;57073;45.650;9.612;2024-02-14T17:03:26;100003.03;;;11.26;47.00
69796;BME280;57073;45.650;9.612;2024-02-14T17:08:26;100014.59;;;11.15;47.33
69796;BME280;57073;45.650;9.612;2024-02-14T17:13:27;100021.91;;;11.08;48.15
69796;BME280;57073;45.650;9.612;2024-02-14T17:18:27;100010.03;;;10.90;47.91
69796;BME280;57073;45.650;9.612;2024-02-14T17:23:29;100012.88;;;10.95;48.00
69796;BME280;57073;45.650;9.612;2024-02-14T17:28:29;100024.16;;;10.92;48.50
69796;BME280;57073;45.650;9.612;2024-02-14T17:33:30;100033.53;;;10.83;48.84
69796;BME280;57073;45.650;9.612;2024-02-14T17:38:30;100043.31;;;10.52;49.32
69796;BME280;57073;45.650;9.612;2024-02-14T17:43:31;100028.81;;;10.53;49.51
69796;BME280;57073;45.650;9.612;2024-02-14T17:48:32;100041.19;;;10.86;48.89
69796;BME280;57073;45.650;9.612;2024-02-14T17:53:33;100047.81;;;10.90;49.43
69796;BME280;57073;45.650;9.612;2024-02-14T17:58:33;100046.03;;;11.03;48.63
69796;BME280;57073;45.650;9.612;2024-02-14T18:03:34;100045.75;;;10.92;49.13
69796;BME280;57073;45.650;9.612;2024-02-14T18:08:35;100043.47;;;11.14;49.22
69796;BME280;57073;45.650;9.612;2024-02-14T18:13:35;100034.03;;;10.98;49.47
69796;BME280;57073;45.650;9.612;2024-02-14T18:18:36;100049.19;;;10.99;49.96
69796;BME280;57073;45.650;9.612;2024-02-14T18:23:36;100047.38;;;10.93;50.39
69796;BME280;57073;45.650;9.612;2024-02-14T18:28:37;100054.53;;;10.81;50.97
69796;BME280;57073;45.650;9.612;2024-02-14T18:33:38;100055.59;;;10.80;50.42
69796;BME280;57073;45.650;9.612;2024-02-14T18:38:38;100056.44;;;10.74;51.74
69796;BME280;57073;45.650;9.612;2024-02-14T18:43:39;100051.50;;;10.71;51.40
69796;BME280;57073;45.650;9.612;2024-02-14T18:48:39;100051.75;;;10.63;51.31
69796;BME280;57073;45.650;9.612;2024-02-14T18:53:40;100056.50;;;10.35;52.33
69796;BME280;57073;45.650;9.612;2024-02-14T18:58:43;100054.06;;;10.20;53.13
69796;BME280;57073;45.650;9.612;2024-02-14T19:03:44;100057.91;;;9.99;54.72
69796;BME280;57073;45.650;9.612;2024-02-14T19:08:44;100061.25;;;9.95;54.60
69796;BME280;57073;45.650;9.612;2024-02-14T19:13:46;100061.31;;;9.75;54.23
69796;BME280;57073;45.650;9.612;2024-02-14T19:18:46;100056.38;;;9.65;55.28
69796;BME280;57073;45.650;9.612;2024-02-14T19:23:47;100053.91;;;9.57;55.26
69796;BME280;57073;45.650;9.612;2024-02-14T19:28:47;100062.88;;;9.37;55.85
69796;BME280;57073;45.650;9.612;2024-02-14T19:33:48;100072.00;;;9.16;55.88
69796;BME280;57073;45.650;9.612;2024-02-14T19:38:48;100069.75;;;9.13;56.36
69796;BME280;57073;45.650;9.612;2024-02-14T19:43:50;100072.41;;;9.06;56.81
69796;BME280;57073;45.650;9.612;2024-02-14T19:48:50;100073.88;;;9.16;56.29
69796;BME280;57073;45.650;9.612;2024-02-14T19:53:51;100076.34;;;9.17;56.79
69796;BME280;57073;45.650;9.612;2024-02-14T19:58:51;100070.75;;;9.19;56.79
69796;BME280;57073;45.650;9.612;2024-02-14T20:03:52;100072.81;;;9.37;55.73
69796;BME280;57073;45.650;9.612;2024-02-14T20:08:56;100069.91;;;9.32;56.61
69796;BME280;57073;45.650;9.612;2024-02-14T20:13:59;100071.78;;;9.31;57.34
69796;BME280;57073;45.650;9.612;2024-02-14T20:19:00;100069.91;;;9.32;57.33
69796;BME280;57073;45.650;9.612;2024-02-14T20:24:01;100066.81;;;9.35;57.62
69796;BME280;57073;45.650;9.612;2024-02-14T20:29:04;100068.44;;;9.42;56.83
69796;BME280;57073;45.650;9.612;2024-02-14T20:34:05;100073.00;;;9.35;54.88
69796;BME280;57073;45.650;9.612;2024-02-14T20:39:06;100081.25;;;9.47;54.26
69796;BME280;57073;45.650;9.612;2024-02-14T20:44:07;100080.88;;;9.37;55.93
69796;BME280;57073;45.650;9.612;2024-02-14T20:49:08;100093.53;;;9.23;57.56
69796;BME280;57073;45.650;9.612;2024-02-14T20:54:08;100098.28;;;9.27;57.91
69796;BME280;57073;45.650;9.612;2024-02-14T20:59:09;100093.31;;;9.24;57.97
69796;BME280;57073;45.650;9.612;2024-02-14T21:04:09;100076.53;;;9.29;57.49
69796;BME280;57073;45.650;9.612;2024-02-14T21:09:09;100075.31;;;9.32;57.76
69796;BME280;57073;45.650;9.612;2024-02-14T21:14:10;100094.13;;;9.32;57.07
69796;BME280;57073;45.650;9.612;2024-02-14T21:19:10;100099.13;;;9.15;57.52
69796;BME280;57073;45.650;9.612;2024-02-14T21:24:10;100107.81;;;9.03;58.38
69796;BME280;57073;45.650;9.612;2024-02-14T21:29:11;100098.47;;;8.93;57.69
69796;BME280;57073;45.650;9.612;2024-02-14T21:34:11;100103.03;;;9.12;56.21
69796;BME280;57073;45.650;9.612;2024-02-14T21:39:13;100104.44;;;8.75;58.07
69796;BME280;57073;45.650;9.612;2024-02-14T21:44:15;100094.50;;;8.82;57.19
69796;BME280;57073;45.650;9.612;2024-02-14T21:49:15;100086.44;;;8.82;57.31
69796;BME280;57073;45.650;9.612;2024-02-14T21:54:19;100096.19;;;8.69;57.84
69796;BME280;57073;45.650;9.612;2024-02-14T21:59:20;100087.69;;;8.73;56.74
69796;BME280;57073;45.650;9.612;2024-02-14T22:04:20;100093.50;;;8.69;57.53
69796;BME280;57073;45.650;9.612;2024-02-14T22:09:22;100082.28;;;8.59;57.10
69796;BME280;57073;45.650;9.612;2024-02-14T22:14:24;100089.13;;;8.55;57.55
69796;BME280;57073;45.650;9.612;2024-02-14T22:19:24;100094.31;;;8.70;56.72
69796;BME280;57073;45.650;9.612;2024-02-14T22:24:25;100096.13;;;8.56;57.33
69796;BME280;57073;45.650;9.612;2024-02-14T22:29:26;100107.94;;;8.55;57.25
69796;BME280;57073;45.650;9.612;2024-02-14T22:34:26;100106.66;;;8.51;56.83
69796;BME280;57073;45.650;9.612;2024-02-14T22:39:27;100100.22;;;8.32;57.84
69796;BME280;57073;45.650;9.612;2024-02-14T22:44:27;100095.00;;;8.17;57.98
69796;BME280;57073;45.650;9.612;2024-02-14T22:49:27;100099.09;;;8.06;58.53
69796;BME280;57073;45.650;9.612;2024-02-14T22:54:28;100103.41;;;8.01;59.20
69796;BME280;57073;45.650;9.612;2024-02-14T22:59:28;100077.97;;;7.90;58.89
69796;BME280;57073;45.650;9.612;2024-02-14T23:04:29;100090.53;;;7.83;59.34
69796;BME280;57073;45.650;9.612;2024-02-14T23:09:33;100085.47;;;7.66;60.20
69796;BME280;57073;45.650;9.612;2024-02-14T23:14:36;100095.94;;;7.54;60.15
69796;BME280;57073;45.650;9.612;2024-02-14T23:19:38;100089.56;;;7.62;59.80
69796;BME280;57073;45.650;9.612;2024-02-14T23:24:39;100093.72;;;7.65;59.56
69796;BME280;57073;45.650;9.612;2024-02-14T23:29:39;100094.75;;;7.64;59.98
69796;BME280;57073;45.650;9.612;2024-02-14T23:34:40;100099.56;;;7.75;59.20
69796;BME280;57073;45.650;9.612;2024-02-14T23:39:40;100099.56;;;7.75;58.75
69796;BME280;57073;45.650;9.612;2024-02-14T23:44:41;100091.09;;;7.78;58.23
69796;BME280;57073;45.650;9.612;2024-02-14T23:49:41;100091.28;;;7.70;58.47
69796;BME280;57073;45.650;9.612;2024-02-14T23:54:42;100071.38;;;7.58;59.22
69796;BME280;57073;45.650;9.612;2024-02-14T23:59:43;100084.63;;;7.66;58.99
